createdAt,value
2019-03-18T00:00:28.884Z,7.69
2019-03-18T00:02:58.315Z,7.68
2019-03-18T00:05:27.749Z,7.69
2019-03-18T00:07:57.113Z,7.66
2019-03-18T00:10:26.554Z,7.65
2019-03-18T00:12:56.250Z,7.64
2019-03-18T00:15:25.693Z,7.65
2019-03-18T00:17:55.055Z,7.67
2019-03-18T00:20:24.764Z,7.68
2019-03-18T00:22:54.119Z,7.68
2019-03-18T00:25:23.738Z,7.68
2019-03-18T00:27:53.092Z,7.67
2019-03-18T00:30:22.530Z,7.67
2019-03-18T00:32:51.895Z,7.67
2019-03-18T00:35:21.263Z,7.66
2019-03-18T00:37:50.616Z,7.65
2019-03-18T00:40:21.233Z,7.67
2019-03-18T00:42:50.597Z,7.67
2019-03-18T00:45:19.967Z,7.67
2019-03-18T00:47:49.383Z,7.68
2019-03-18T00:50:19.009Z,7.69
2019-03-18T00:52:48.533Z,7.67
2019-03-18T00:55:18.225Z,7.66
2019-03-18T00:57:47.584Z,7.64
2019-03-18T01:00:18.562Z,7.66
2019-03-18T01:02:49.638Z,7.66
2019-03-18T01:05:19.552Z,7.66
2019-03-18T01:07:48.877Z,7.68
2019-03-18T01:10:18.881Z,7.67
2019-03-18T01:12:48.323Z,7.68
2019-03-18T01:15:27.525Z,7.65
2019-03-18T01:17:48.782Z,7.63
2019-03-18T01:20:18.203Z,7.60
2019-03-18T01:22:47.569Z,7.57
2019-03-18T01:25:16.928Z,7.56
2019-03-18T01:27:46.303Z,7.53
2019-03-18T01:30:16.682Z,7.53
2019-03-18T01:32:46.692Z,7.52
2019-03-18T01:35:16.695Z,7.51
2019-03-18T01:37:46.823Z,7.52
2019-03-18T01:40:16.983Z,7.50
2019-03-18T01:42:46.348Z,7.49
2019-03-18T01:45:15.724Z,7.48
2019-03-18T01:47:45.076Z,7.48
2019-03-18T01:50:15.743Z,7.48
2019-03-18T01:52:45.190Z,7.45
2019-03-18T01:55:14.618Z,7.44
2019-03-18T01:57:43.985Z,7.40
2019-03-18T02:00:15.153Z,7.40
2019-03-18T02:02:44.522Z,7.37
2019-03-18T02:05:13.900Z,7.35
2019-03-18T02:07:43.247Z,7.33
2019-03-18T02:10:17.993Z,7.32
2019-03-18T02:12:47.352Z,7.30
2019-03-18T02:15:16.986Z,7.31
2019-03-18T02:17:46.350Z,7.30
2019-03-18T02:20:19.960Z,7.30
2019-03-18T02:22:49.601Z,7.26
2019-03-18T02:25:18.953Z,7.25
2019-03-18T02:27:48.317Z,7.26
2019-03-18T02:30:20.692Z,7.27
2019-03-18T02:32:50.062Z,7.27
2019-03-18T02:35:19.427Z,7.25
2019-03-18T02:37:49.100Z,7.25
2019-03-18T02:40:18.454Z,7.24
2019-03-18T02:42:47.829Z,7.23
2019-03-18T02:45:19.075Z,7.22
2019-03-18T02:47:48.456Z,7.24
2019-03-18T02:50:17.791Z,7.27
2019-03-18T02:52:47.463Z,7.24
2019-03-18T02:55:16.810Z,7.24
2019-03-18T02:57:46.189Z,7.24
2019-03-18T03:00:16.194Z,7.26
2019-03-18T03:02:45.635Z,7.24
2019-03-18T03:05:15.203Z,7.27
2019-03-18T03:07:44.604Z,7.26
2019-03-18T03:10:15.244Z,7.25
2019-03-18T03:12:44.605Z,7.25
2019-03-18T03:15:15.016Z,7.22
2019-03-18T03:17:44.593Z,7.22
2019-03-18T03:20:14.146Z,7.23
2019-03-18T03:22:43.526Z,7.21
2019-03-18T03:25:13.389Z,7.18
2019-03-18T03:27:42.797Z,7.19
2019-03-18T03:30:16.128Z,7.19
2019-03-18T03:32:45.600Z,7.16
2019-03-18T03:35:15.112Z,7.15
2019-03-18T03:37:44.458Z,7.17
2019-03-18T03:40:14.134Z,7.18
2019-03-18T03:42:43.559Z,7.23
2019-03-18T03:45:15.958Z,7.27
2019-03-18T03:47:45.306Z,7.29
2019-03-18T03:50:15.848Z,7.33
2019-03-18T03:52:45.214Z,7.34
2019-03-18T03:55:15.423Z,7.38
2019-03-18T03:57:45.272Z,7.44
2019-03-18T04:00:16.367Z,7.48
2019-03-18T04:02:46.142Z,7.51
2019-03-18T04:05:16.239Z,7.56
2019-03-18T04:07:46.575Z,7.63
2019-03-18T04:10:16.553Z,7.67
2019-03-18T04:12:46.293Z,7.71
2019-03-18T04:15:16.485Z,7.74
2019-03-18T04:17:45.853Z,7.78
2019-03-18T04:20:16.734Z,7.83
2019-03-18T04:22:46.158Z,7.88
2019-03-18T04:25:15.534Z,7.96
2019-03-18T04:27:44.892Z,8.03
2019-03-18T04:30:15.663Z,8.05
2019-03-18T04:32:45.038Z,8.10
2019-03-18T04:35:14.401Z,8.13
2019-03-18T04:37:43.800Z,8.18
2019-03-18T04:40:13.197Z,8.21
2019-03-18T04:42:42.564Z,8.20
2019-03-18T04:45:12.787Z,8.22
2019-03-18T04:47:42.477Z,8.20
2019-03-18T04:50:13.364Z,8.21
2019-03-18T04:52:42.710Z,8.22
2019-03-18T04:55:12.419Z,8.25
2019-03-18T04:57:41.794Z,8.22
2019-03-18T05:00:14.045Z,8.28
2019-03-18T05:02:43.416Z,8.31
2019-03-18T05:05:12.988Z,8.36
2019-03-18T05:07:42.348Z,8.38
2019-03-18T05:10:12.340Z,8.41
2019-03-18T05:12:41.740Z,8.46
2019-03-18T05:15:11.758Z,8.50
2019-03-18T05:17:41.126Z,8.49
2019-03-18T05:20:13.422Z,8.50
2019-03-18T05:22:42.787Z,8.52
2019-03-18T05:25:12.216Z,8.52
2019-03-18T05:27:41.580Z,8.52
2019-03-18T05:30:14.985Z,8.57
2019-03-18T05:32:44.369Z,8.58
2019-03-18T05:35:13.791Z,8.58
2019-03-18T05:37:43.161Z,8.61
2019-03-18T05:40:12.572Z,8.63
2019-03-18T05:42:41.966Z,8.65
2019-03-18T05:45:13.380Z,8.68
2019-03-18T05:47:42.759Z,8.68
2019-03-18T05:50:12.656Z,8.72
2019-03-18T05:52:42.026Z,8.75
2019-03-18T05:55:11.534Z,8.76
2019-03-18T05:57:40.889Z,8.77
2019-03-18T06:00:16.142Z,8.77
2019-03-18T06:02:46.989Z,8.75
2019-03-18T06:05:16.643Z,8.75
2019-03-18T06:07:46.263Z,8.73
2019-03-18T06:10:15.974Z,8.72
2019-03-18T06:12:45.336Z,8.70
2019-03-18T06:15:15.087Z,8.67
2019-03-18T06:17:52.310Z,8.69
2019-03-18T06:20:15.887Z,8.70
2019-03-18T06:22:45.245Z,8.70
2019-03-18T06:25:14.633Z,8.79
2019-03-18T06:27:43.967Z,8.92
2019-03-18T06:30:15.825Z,9.09
2019-03-18T06:32:45.252Z,9.22
2019-03-18T06:35:14.690Z,9.37
2019-03-18T06:37:44.050Z,9.46
2019-03-18T06:40:14.843Z,9.56
2019-03-18T06:42:44.213Z,9.64
2019-03-18T06:45:14.312Z,9.79
2019-03-18T06:47:43.699Z,9.92
2019-03-18T06:50:13.959Z,10.05
2019-03-18T06:52:43.323Z,10.22
2019-03-18T06:55:12.767Z,10.31
2019-03-18T06:57:42.137Z,10.34
2019-03-18T07:00:15.298Z,10.34
2019-03-18T07:02:44.729Z,10.36
2019-03-18T07:05:14.371Z,10.45
2019-03-18T07:07:43.750Z,10.50
2019-03-18T07:10:14.368Z,10.51
2019-03-18T07:12:43.732Z,10.56
2019-03-18T07:15:13.712Z,10.62
2019-03-18T07:17:43.078Z,10.64
2019-03-18T07:20:14.163Z,10.66
2019-03-18T07:22:43.762Z,10.75
2019-03-18T07:25:13.309Z,10.87
2019-03-18T07:27:42.672Z,10.93
2019-03-18T07:30:15.009Z,11.11
2019-03-18T07:32:44.369Z,11.35
2019-03-18T07:35:13.818Z,11.73
2019-03-18T07:37:43.429Z,12.27
2019-03-18T07:40:15.487Z,12.71
2019-03-18T07:42:44.851Z,13.06
2019-03-18T07:45:16.535Z,13.46
2019-03-18T07:47:45.959Z,13.86
2019-03-18T07:50:16.440Z,14.30
2019-03-18T07:52:45.803Z,14.58
2019-03-18T07:55:15.203Z,14.88
2019-03-18T07:57:44.577Z,15.07
2019-03-18T08:00:15.564Z,15.25
2019-03-18T08:02:44.937Z,15.60
2019-03-18T08:05:14.482Z,16.25
2019-03-18T08:07:43.859Z,17.03
2019-03-18T08:10:14.713Z,17.81
2019-03-18T08:12:44.094Z,18.43
2019-03-18T08:15:14.107Z,18.91
2019-03-18T08:17:44.005Z,19.15
2019-03-18T08:20:14.015Z,19.33
2019-03-18T08:22:43.385Z,19.55
2019-03-18T08:25:12.824Z,19.78
2019-03-18T08:27:42.418Z,20.04
2019-03-18T08:30:19.482Z,20.40
2019-03-18T08:32:48.876Z,20.74
2019-03-18T08:35:18.947Z,21.11
2019-03-18T08:37:48.322Z,21.33
2019-03-18T08:40:17.706Z,21.59
2019-03-18T08:42:47.079Z,21.68
2019-03-18T08:45:17.256Z,21.38
2019-03-18T08:47:46.623Z,21.13
2019-03-18T08:50:16.000Z,21.03
2019-03-18T08:52:45.379Z,20.85
2019-03-18T08:55:14.753Z,20.97
2019-03-18T08:57:44.387Z,21.35
2019-03-18T09:00:15.789Z,21.78
2019-03-18T09:02:45.198Z,21.96
2019-03-18T09:05:14.693Z,21.63
2019-03-18T09:07:44.194Z,21.13
2019-03-18T09:10:17.669Z,20.77
2019-03-18T09:12:47.046Z,20.86
2019-03-18T09:15:16.418Z,21.08
2019-03-18T09:17:46.667Z,21.27
2019-03-18T09:20:18.409Z,21.33
2019-03-18T09:22:47.847Z,21.24
2019-03-18T09:25:17.209Z,21.12
2019-03-18T09:27:46.588Z,20.82
2019-03-18T09:30:20.518Z,20.31
2019-03-18T09:32:49.968Z,19.69
2019-03-18T09:35:19.331Z,19.06
2019-03-18T09:37:48.870Z,18.48
2019-03-18T09:40:18.728Z,17.94
2019-03-18T09:42:48.386Z,17.41
2019-03-18T09:45:19.855Z,16.92
2019-03-18T09:47:49.228Z,16.47
2019-03-18T09:50:18.732Z,16.06
2019-03-18T09:52:48.121Z,15.71
2019-03-18T09:55:17.486Z,15.51
2019-03-18T09:57:46.861Z,15.54
2019-03-18T10:00:20.359Z,15.90
2019-03-18T10:02:50.064Z,16.63
2019-03-18T10:05:19.429Z,17.37
2019-03-18T10:07:49.063Z,17.91
2019-03-18T10:10:18.775Z,18.04
2019-03-18T10:12:48.150Z,17.83
2019-03-18T10:15:21.716Z,17.47
2019-03-18T10:17:51.077Z,17.05
2019-03-18T10:20:20.516Z,16.66
2019-03-18T10:22:49.898Z,16.29
2019-03-18T10:25:20.400Z,15.95
2019-03-18T10:27:49.775Z,15.69
2019-03-18T10:30:19.142Z,15.47
2019-03-18T10:32:48.524Z,15.20
2019-03-18T10:35:17.911Z,14.91
2019-03-18T10:37:47.271Z,14.65
2019-03-18T10:40:16.667Z,14.41
2019-03-18T10:42:46.042Z,14.19
2019-03-18T10:45:15.781Z,14.01
2019-03-18T10:47:45.154Z,13.86
2019-03-18T10:50:16.782Z,13.74
2019-03-18T10:52:46.215Z,13.63
2019-03-18T10:55:15.589Z,13.56
2019-03-18T10:57:44.953Z,13.47
2019-03-18T11:00:18.683Z,13.39
2019-03-18T11:02:48.052Z,13.28
2019-03-18T11:05:17.521Z,13.16
2019-03-18T11:07:46.900Z,13.00
2019-03-18T11:10:17.248Z,12.86
2019-03-18T11:12:46.799Z,12.77
2019-03-18T11:15:18.596Z,12.84
2019-03-18T11:17:47.982Z,13.07
2019-03-18T11:20:17.892Z,13.20
2019-03-18T11:22:47.262Z,13.24
2019-03-18T11:25:17.781Z,13.27
2019-03-18T11:27:47.145Z,13.26
2019-03-18T11:30:19.375Z,13.22
2019-03-18T11:32:48.737Z,13.30
2019-03-18T11:35:18.126Z,13.37
2019-03-18T11:37:47.571Z,13.50
2019-03-18T11:40:23.022Z,13.67
2019-03-18T11:42:52.473Z,14.11
2019-03-18T11:45:27.588Z,14.74
2019-03-18T11:47:56.955Z,15.45
2019-03-18T11:50:26.417Z,16.02
2019-03-18T11:52:55.790Z,16.33
2019-03-18T11:55:28.690Z,16.67
2019-03-18T11:57:58.059Z,16.88
2019-03-18T12:00:27.823Z,16.98
2019-03-18T12:02:57.189Z,17.02
2019-03-18T12:05:30.043Z,17.11
2019-03-18T12:07:59.418Z,17.25
2019-03-18T12:10:29.578Z,17.40
2019-03-18T12:12:58.960Z,17.49
2019-03-18T12:15:31.097Z,17.48
2019-03-18T12:18:00.672Z,17.47
2019-03-18T12:20:32.957Z,17.48
2019-03-18T12:23:01.231Z,17.53
2019-03-18T12:25:33.549Z,17.56
2019-03-18T12:28:04.839Z,17.59
2019-03-18T12:30:32.827Z,17.52
2019-03-18T12:33:02.195Z,17.35
2019-03-18T12:35:31.899Z,17.18
2019-03-18T12:38:01.332Z,16.84
2019-03-18T12:40:30.784Z,16.44
2019-03-18T12:43:00.161Z,16.03
2019-03-18T12:45:30.151Z,15.65
2019-03-18T12:47:59.597Z,15.38
2019-03-18T12:50:49.345Z,15.16
2019-03-18T12:53:00.494Z,14.96
2019-03-18T12:55:30.205Z,14.80
2019-03-18T12:57:59.578Z,14.68
2019-03-18T13:00:36.957Z,14.52
2019-03-18T13:03:06.804Z,14.30
2019-03-18T13:05:36.182Z,14.16
2019-03-18T13:08:05.862Z,14.08
2019-03-18T13:10:35.327Z,14.10
2019-03-18T13:13:04.857Z,14.17
2019-03-18T13:15:34.258Z,14.22
2019-03-18T13:18:03.721Z,14.24
2019-03-18T13:20:33.199Z,14.21
2019-03-18T13:23:02.579Z,14.17
2019-03-18T13:25:31.958Z,14.13
2019-03-18T13:28:01.622Z,14.11
2019-03-18T13:30:30.986Z,14.08
2019-03-18T13:33:00.425Z,14.04
2019-03-18T13:35:29.799Z,13.95
2019-03-18T13:38:00.551Z,13.81
2019-03-18T13:40:30.356Z,13.63
2019-03-18T13:43:00.746Z,13.50
2019-03-18T13:45:34.008Z,13.38
2019-03-18T13:48:03.473Z,13.27
2019-03-18T13:50:52.177Z,13.20
2019-03-18T13:53:21.636Z,13.23
2019-03-18T13:55:51.012Z,13.31
2019-03-18T13:58:20.394Z,13.44
2019-03-18T14:00:49.765Z,13.55
2019-03-18T14:03:19.144Z,13.64
2019-03-18T14:05:48.520Z,13.69
2019-03-18T14:08:17.899Z,13.80
2019-03-18T14:10:47.270Z,13.93
2019-03-18T14:13:17.084Z,14.06
2019-03-18T14:15:46.452Z,14.16
2019-03-18T14:18:15.836Z,14.24
2019-03-18T14:20:45.201Z,14.30
2019-03-18T14:23:14.577Z,14.34
2019-03-18T14:25:45.506Z,14.32
2019-03-18T14:28:15.108Z,14.32
2019-03-18T14:30:44.472Z,14.25
2019-03-18T14:33:13.858Z,14.16
2019-03-18T14:35:43.630Z,14.10
2019-03-18T14:38:13.010Z,14.07
2019-03-18T14:40:42.378Z,14.07
2019-03-18T14:43:11.762Z,14.09
2019-03-18T14:45:41.140Z,14.12
2019-03-18T14:48:10.526Z,14.12
2019-03-18T14:50:41.034Z,14.12
2019-03-18T14:53:11.096Z,14.12
2019-03-18T14:55:40.479Z,14.15
2019-03-18T14:58:09.847Z,14.18
2019-03-18T15:00:39.212Z,14.23
2019-03-18T15:03:08.603Z,14.32
2019-03-18T15:05:37.964Z,14.38
2019-03-18T15:08:07.343Z,14.44
2019-03-18T15:10:36.718Z,14.48
2019-03-18T15:13:06.096Z,14.50
2019-03-18T15:15:35.471Z,14.50
2019-03-18T15:18:05.125Z,14.49
2019-03-18T15:20:34.809Z,14.46
2019-03-18T15:23:04.195Z,14.44
2019-03-18T15:25:36.113Z,14.41
2019-03-18T15:28:05.995Z,14.43
2019-03-18T15:30:35.366Z,14.46
2019-03-18T15:33:05.095Z,14.49
2019-03-18T15:35:34.472Z,14.52
2019-03-18T15:38:03.847Z,14.49
2019-03-18T15:40:33.237Z,14.48
2019-03-18T15:43:02.593Z,14.46
2019-03-18T15:45:35.694Z,14.42
2019-03-18T15:48:05.143Z,14.39
2019-03-18T15:50:34.807Z,14.34
2019-03-18T15:53:04.172Z,14.26
2019-03-18T15:55:33.550Z,14.19
2019-03-18T15:58:02.921Z,14.11
2019-03-18T16:00:33.640Z,14.02
2019-03-18T16:03:03.011Z,13.90
2019-03-18T16:05:32.398Z,13.75
2019-03-18T16:08:01.778Z,13.61
2019-03-18T16:10:31.158Z,13.48
2019-03-18T16:13:00.531Z,13.39
2019-03-18T16:15:29.906Z,13.30
2019-03-18T16:17:59.356Z,13.24
2019-03-18T16:20:28.908Z,13.20
2019-03-18T16:22:58.292Z,13.17
2019-03-18T16:25:27.655Z,13.10
2019-03-18T16:27:57.032Z,13.06
2019-03-18T16:30:26.494Z,13.00
2019-03-18T16:32:55.873Z,12.95
2019-03-18T16:35:25.278Z,12.91
2019-03-18T16:37:54.646Z,12.86
2019-03-18T16:40:25.300Z,12.81
2019-03-18T16:42:55.000Z,12.78
2019-03-18T16:45:24.637Z,12.73
2019-03-18T16:47:54.012Z,12.67
2019-03-18T16:50:30.114Z,12.63
2019-03-18T16:52:59.775Z,12.56
2019-03-18T16:55:29.159Z,12.52
2019-03-18T16:57:58.527Z,12.47
2019-03-18T17:00:28.662Z,12.41
2019-03-18T17:02:58.031Z,12.35
2019-03-18T17:05:27.420Z,12.31
2019-03-18T17:07:56.821Z,12.26
2019-03-18T17:10:26.511Z,12.22
2019-03-18T17:12:55.881Z,12.18
2019-03-18T17:15:25.260Z,12.13
2019-03-18T17:17:54.631Z,12.07
2019-03-18T17:20:24.079Z,12.01
2019-03-18T17:22:53.442Z,11.95
2019-03-18T17:25:28.327Z,11.89
2019-03-18T17:27:57.950Z,11.81
2019-03-18T17:30:27.311Z,11.76
2019-03-18T17:32:56.701Z,11.74
2019-03-18T17:35:26.048Z,11.73
2019-03-18T17:37:55.425Z,11.69
2019-03-18T17:40:24.832Z,11.64
2019-03-18T17:42:54.204Z,11.59
2019-03-18T17:45:23.574Z,11.53
2019-03-18T17:47:52.949Z,11.46
2019-03-18T17:50:28.239Z,11.40
2019-03-18T17:53:03.213Z,11.30
2019-03-18T17:55:28.716Z,11.20
2019-03-18T17:57:58.170Z,11.13
2019-03-18T18:00:37.826Z,11.05
2019-03-18T18:03:07.200Z,10.96
2019-03-18T18:05:36.574Z,10.88
2019-03-18T18:08:05.944Z,10.82
2019-03-18T18:10:35.310Z,10.74
2019-03-18T18:13:04.764Z,10.68
2019-03-18T18:15:34.127Z,10.62
2019-03-18T18:18:03.509Z,10.55
2019-03-18T18:20:32.886Z,10.49
2019-03-18T18:23:13.574Z,10.43
2019-03-18T18:25:33.416Z,10.35
2019-03-18T18:28:02.775Z,10.30
2019-03-18T18:30:32.145Z,10.22
2019-03-18T18:33:01.766Z,10.17
2019-03-18T18:35:31.146Z,10.08
2019-03-18T18:38:00.522Z,10.02
2019-03-18T18:40:30.649Z,9.94
2019-03-18T18:43:00.024Z,9.87
2019-03-18T18:45:31.269Z,9.81
2019-03-18T18:48:00.661Z,9.72
2019-03-18T18:50:30.038Z,9.66
2019-03-18T18:52:59.413Z,9.59
2019-03-18T18:55:28.777Z,9.52
2019-03-18T18:57:58.624Z,9.46
2019-03-18T19:00:27.988Z,9.40
2019-03-18T19:02:57.387Z,9.34
2019-03-18T19:05:27.015Z,9.29
2019-03-18T19:07:57.679Z,9.24
2019-03-18T19:10:27.241Z,9.18
2019-03-18T19:12:56.622Z,9.13
2019-03-18T19:15:29.925Z,9.06
2019-03-18T19:17:59.298Z,9.02
2019-03-18T19:20:28.678Z,8.97
2019-03-18T19:22:58.324Z,8.92
2019-03-18T19:25:27.690Z,8.89
2019-03-18T19:27:57.064Z,8.83
2019-03-18T19:30:26.418Z,8.80
2019-03-18T19:32:55.799Z,8.75
2019-03-18T19:35:25.160Z,8.71
2019-03-18T19:37:54.556Z,8.66
2019-03-18T19:40:25.140Z,8.62
2019-03-18T19:42:54.510Z,8.59
2019-03-18T19:45:23.880Z,8.55
2019-03-18T19:47:53.660Z,8.49
2019-03-18T19:50:32.370Z,8.47
2019-03-18T19:53:01.837Z,8.39
2019-03-18T19:55:31.479Z,8.36
2019-03-18T19:58:01.079Z,8.33
2019-03-18T20:00:31.403Z,8.28
2019-03-18T20:03:00.829Z,8.25
2019-03-18T20:05:30.208Z,8.20
2019-03-18T20:07:59.566Z,8.18
2019-03-18T20:10:29.008Z,8.12
2019-03-18T20:12:58.439Z,8.08
2019-03-18T20:15:27.819Z,8.05
2019-03-18T20:17:57.203Z,8.00
2019-03-18T20:20:26.591Z,7.97
2019-03-18T20:22:55.932Z,7.92
2019-03-18T20:25:25.312Z,7.90
2019-03-18T20:27:54.680Z,7.82
2019-03-18T20:30:24.145Z,7.80
2019-03-18T20:32:54.667Z,7.78
2019-03-18T20:35:25.060Z,7.73
2019-03-18T20:37:54.411Z,7.70
2019-03-18T20:40:23.848Z,7.66
2019-03-18T20:42:53.217Z,7.64
2019-03-18T20:45:24.506Z,7.60
2019-03-18T20:47:53.874Z,7.59
2019-03-18T20:50:24.558Z,7.56
2019-03-18T20:52:53.919Z,7.56
2019-03-18T20:55:23.362Z,7.54
2019-03-18T20:57:52.723Z,7.54
2019-03-18T21:00:24.372Z,7.52
2019-03-18T21:02:53.915Z,7.50
2019-03-18T21:05:25.203Z,7.46
2019-03-18T21:07:54.934Z,7.45
2019-03-18T21:10:24.536Z,7.44
2019-03-18T21:12:53.906Z,7.43
2019-03-18T21:15:23.290Z,7.40
2019-03-18T21:17:52.667Z,7.38
2019-03-18T21:20:28.251Z,7.37
2019-03-18T21:22:57.992Z,7.32
2019-03-18T21:25:27.370Z,7.31
2019-03-18T21:27:57.033Z,7.28
2019-03-18T21:30:26.511Z,7.23
2019-03-18T21:32:55.968Z,7.19
2019-03-18T21:35:25.343Z,7.14
2019-03-18T21:37:54.706Z,7.08
2019-03-18T21:40:24.082Z,7.03
2019-03-18T21:42:53.451Z,6.97
2019-03-18T21:45:25.969Z,6.88
2019-03-18T21:47:55.337Z,6.79
2019-03-18T21:50:24.712Z,6.74
2019-03-18T21:52:54.065Z,6.68
2019-03-18T21:55:23.437Z,6.61
2019-03-18T21:57:52.872Z,6.57
2019-03-18T22:00:23.466Z,6.53
2019-03-18T22:02:52.839Z,6.50
2019-03-18T22:05:22.232Z,6.48
2019-03-18T22:07:51.583Z,6.48
2019-03-18T22:10:21.903Z,6.46
2019-03-18T22:12:51.261Z,6.44
2019-03-18T22:15:20.628Z,6.42
2019-03-18T22:17:50.871Z,6.42
2019-03-18T22:20:23.695Z,6.38
2019-03-18T22:22:53.082Z,6.37
2019-03-18T22:25:22.438Z,6.32
2019-03-18T22:27:51.812Z,6.30
2019-03-18T22:30:21.385Z,6.27
2019-03-18T22:32:50.767Z,6.22
2019-03-18T22:35:20.135Z,6.20
2019-03-18T22:37:49.522Z,6.13
2019-03-18T22:40:19.154Z,6.07
2019-03-18T22:42:48.528Z,6.04
2019-03-18T22:45:18.509Z,6.02
2019-03-18T22:47:47.874Z,5.98
2019-03-18T22:50:20.794Z,5.98
2019-03-18T22:52:50.190Z,5.97
2019-03-18T22:55:19.817Z,5.97
2019-03-18T22:57:49.444Z,5.96
2019-03-18T23:00:25.791Z,5.96
2019-03-18T23:02:55.480Z,5.92
2019-03-18T23:05:25.098Z,5.88
2019-03-18T23:07:54.469Z,5.84
2019-03-18T23:10:23.836Z,5.79
2019-03-18T23:12:53.201Z,5.72
2019-03-18T23:15:22.804Z,5.68
2019-03-18T23:17:52.519Z,5.61
2019-03-18T23:20:21.882Z,5.59
2019-03-18T23:22:51.264Z,5.55
2019-03-18T23:25:20.686Z,5.56
2019-03-18T23:27:50.068Z,5.56
2019-03-18T23:30:19.432Z,5.55
2019-03-18T23:32:49.271Z,5.57
2019-03-18T23:35:18.642Z,5.57
2019-03-18T23:37:48.024Z,5.55
2019-03-18T23:40:17.377Z,5.56
2019-03-18T23:42:46.765Z,5.53
2019-03-18T23:45:16.453Z,5.56
2019-03-18T23:47:45.832Z,5.56
2019-03-18T23:50:17.356Z,5.58
2019-03-18T23:52:46.676Z,5.60
2019-03-18T23:55:19.623Z,5.62
2019-03-18T23:57:47.140Z,5.65
